sensor_id;sensor_type;location;lat;lon;timestamp;pressure;altitude;pressure_sealevel;temperature;humidity
19510;BME280;9896;42.486;26.506;2023-01-30T09:35:48;100056.97;;;2.68;100.00
19510;BME280;9896;42.486;26.506;2023-01-30T09:38:14;100036.97;;;2.91;100.00
19510;BME280;9896;42.486;26.506;2023-01-30T09:54:22;100022.94;;;3.50;96.35
19510;BME280;9896;42.486;26.506;2023-01-30T09:56:55;100023.91;;;3.49;96.06
19510;BME280;9896;42.486;26.506;2023-01-30T09:59:31;100011.19;;;3.53;95.24
19510;BME280;9896;42.486;26.506;2023-01-30T10:04:39;100009.00;;;3.22;93.33
19510;BME280;9896;42.486;26.506;2023-01-30T10:09:58;100002.88;;;3.22;94.18
19510;BME280;9896;42.486;26.506;2023-01-30T10:20:39;99986.78;;;2.90;96.82
19510;BME280;9896;42.486;26.506;2023-01-30T10:25:49;99970.94;;;3.23;94.88
19510;BME280;9896;42.486;26.506;2023-01-30T10:28:56;99968.63;;;3.20;95.14
19510;BME280;9896;42.486;26.506;2023-01-30T10:31:26;99964.69;;;3.33;92.94
19510;BME280;9896;42.486;26.506;2023-01-30T10:34:05;99967.53;;;3.39;92.10
19510;BME280;9896;42.486;26.506;2023-01-30T10:39:21;99953.16;;;3.42;91.39
19510;BME280;9896;42.486;26.506;2023-01-30T10:41:54;99951.78;;;3.30;91.72
19510;BME280;9896;42.486;26.506;2023-01-30T10:44:22;99940.44;;;3.19;91.79
19510;BME280;9896;42.486;26.506;2023-01-30T10:49:55;99933.53;;;2.67;93.68
19510;BME280;9896;42.486;26.506;2023-01-30T10:52:34;99937.09;;;2.84;93.77
19510;BME280;9896;42.486;26.506;2023-01-30T11:03:40;99921.19;;;2.75;97.58
19510;BME280;9896;42.486;26.506;2023-01-30T11:06:15;99911.50;;;2.66;98.71
19510;BME280;9896;42.486;26.506;2023-01-30T11:08:41;99893.91;;;2.83;97.87
19510;BME280;9896;42.486;26.506;2023-01-30T11:14:04;99888.16;;;3.21;97.32
19510;BME280;9896;42.486;26.506;2023-01-30T11:16:31;99895.84;;;3.07;96.51
19510;BME280;9896;42.486;26.506;2023-01-30T11:18:57;99886.44;;;3.12;98.76
19510;BME280;9896;42.486;26.506;2023-01-30T11:21:27;99878.97;;;3.08;97.50
19510;BME280;9896;42.486;26.506;2023-01-30T11:23:54;99866.09;;;3.13;98.40
19510;BME280;9896;42.486;26.506;2023-01-30T11:28:50;99869.16;;;2.66;100.00
19510;BME280;9896;42.486;26.506;2023-01-30T11:31:27;99858.19;;;2.87;99.69
19510;BME280;9896;42.486;26.506;2023-01-30T11:34:02;99858.19;;;3.29;97.00
19510;BME280;9896;42.486;26.506;2023-01-30T11:36:34;99846.53;;;3.14;97.24
19510;BME280;9896;42.486;26.506;2023-01-30T11:39:02;99836.66;;;3.24;96.51
19510;BME280;9896;42.486;26.506;2023-01-30T11:41:29;99834.81;;;3.16;95.61
19510;BME280;9896;42.486;26.506;2023-01-30T11:44:00;99836.16;;;3.28;93.73
19510;BME280;9896;42.486;26.506;2023-01-30T11:46:29;99832.09;;;3.58;94.05
19510;BME280;9896;42.486;26.506;2023-01-30T11:49:02;99832.13;;;3.74;93.41
19510;BME280;9896;42.486;26.506;2023-01-30T11:51:29;99820.88;;;3.14;96.31
19510;BME280;9896;42.486;26.506;2023-01-30T11:54:00;99825.94;;;3.50;94.84
19510;BME280;9896;42.486;26.506;2023-01-30T11:56:35;99816.25;;;3.16;95.68
19510;BME280;9896;42.486;26.506;2023-01-30T11:59:06;99809.44;;;3.14;96.57
19510;BME280;9896;42.486;26.506;2023-01-30T12:01:34;99803.19;;;3.23;95.47
19510;BME280;9896;42.486;26.506;2023-01-30T12:04:06;99808.63;;;3.05;96.50
19510;BME280;9896;42.486;26.506;2023-01-30T12:06:35;99788.78;;;3.17;97.69
19510;BME280;9896;42.486;26.506;2023-01-30T12:09:02;99804.22;;;3.30;99.44
19510;BME280;9896;42.486;26.506;2023-01-30T12:16:56;99790.00;;;3.55;95.20
19510;BME280;9896;42.486;26.506;2023-01-30T12:19:39;99785.69;;;3.38;95.67
19510;BME280;9896;42.486;26.506;2023-01-30T12:25:02;99782.03;;;3.47;94.65
19510;BME280;9896;42.486;26.506;2023-01-30T12:30:42;99780.88;;;3.34;92.79
19510;BME280;9896;42.486;26.506;2023-01-30T12:33:13;99779.56;;;3.62;91.85
19510;BME280;9896;42.486;26.506;2023-01-30T12:38:24;99767.25;;;3.12;93.64
19510;BME280;9896;42.486;26.506;2023-01-30T12:43:45;99774.09;;;3.63;92.02
19510;BME280;9896;42.486;26.506;2023-01-30T12:46:17;99763.97;;;3.75;91.46
19510;BME280;9896;42.486;26.506;2023-01-30T12:49:15;99755.84;;;3.36;92.89
19510;BME280;9896;42.486;26.506;2023-01-30T12:57:42;99743.19;;;3.06;94.89
19510;BME280;9896;42.486;26.506;2023-01-30T13:02:51;99737.16;;;3.46;90.97
19510;BME280;9896;42.486;26.506;2023-01-30T13:08:05;99723.41;;;3.74;89.32
19510;BME280;9896;42.486;26.506;2023-01-30T13:10:39;99735.97;;;3.97;88.40
19510;BME280;9896;42.486;26.506;2023-01-30T13:13:24;99731.75;;;4.27;87.73
19510;BME280;9896;42.486;26.506;2023-01-30T13:18:50;99724.38;;;3.90;87.85
19510;BME280;9896;42.486;26.506;2023-01-30T13:21:45;99724.22;;;3.67;91.07
19510;BME280;9896;42.486;26.506;2023-01-30T13:24:39;99715.28;;;3.68;91.30
19510;BME280;9896;42.486;26.506;2023-01-30T13:27:15;99706.00;;;3.32;92.16
19510;BME280;9896;42.486;26.506;2023-01-30T13:29:42;99708.97;;;3.12;96.07
19510;BME280;9896;42.486;26.506;2023-01-30T13:32:20;99709.28;;;3.01;98.59
19510;BME280;9896;42.486;26.506;2023-01-30T13:34:52;99706.81;;;3.16;98.24
19510;BME280;9896;42.486;26.506;2023-01-30T13:37:21;99689.59;;;3.04;98.27
19510;BME280;9896;42.486;26.506;2023-01-30T13:39:53;99703.81;;;3.11;97.74
19510;BME280;9896;42.486;26.506;2023-01-30T13:44:55;99702.50;;;3.15;97.91
19510;BME280;9896;42.486;26.506;2023-01-30T13:58:22;99689.03;;;2.76;100.00
19510;BME280;9896;42.486;26.506;2023-01-30T14:00:56;99689.88;;;2.76;99.64
19510;BME280;9896;42.486;26.506;2023-01-30T14:03:30;99690.69;;;2.77;99.98
19510;BME280;9896;42.486;26.506;2023-01-30T14:08:36;99686.03;;;2.71;99.88
19510;BME280;9896;42.486;26.506;2023-01-30T14:11:03;99687.31;;;2.17;100.00
19510;BME280;9896;42.486;26.506;2023-01-30T14:13:29;99680.19;;;2.17;100.00
19510;BME280;9896;42.486;26.506;2023-01-30T14:16:01;99687.66;;;2.22;100.00
19510;BME280;9896;42.486;26.506;2023-01-30T14:18:34;99690.13;;;2.15;100.00
19510;BME280;9896;42.486;26.506;2023-01-30T14:21:22;99686.19;;;1.94;100.00
19510;BME280;9896;42.486;26.506;2023-01-30T14:24:00;99686.94;;;1.78;100.00
19510;BME280;9896;42.486;26.506;2023-01-30T14:32:33;99683.56;;;1.42;100.00
19510;BME280;9896;42.486;26.506;2023-01-30T14:40:00;99673.50;;;1.28;100.00
19510;BME280;9896;42.486;26.506;2023-01-30T14:42:27;99675.69;;;1.32;100.00
19510;BME280;9896;42.486;26.506;2023-01-30T14:45:12;99669.13;;;1.36;100.00
19510;BME280;9896;42.486;26.506;2023-01-30T14:47:38;99672.31;;;1.22;100.00
19510;BME280;9896;42.486;26.506;2023-01-30T14:50:17;99672.59;;;1.37;100.00
19510;BME280;9896;42.486;26.506;2023-01-30T14:52:43;99675.91;;;1.39;100.00
19510;BME280;9896;42.486;26.506;2023-01-30T14:55:20;99673.44;;;1.37;100.00
19510;BME280;9896;42.486;26.506;2023-01-30T14:57:55;99665.91;;;1.07;100.00
19510;BME280;9896;42.486;26.506;2023-01-30T15:00:26;99661.75;;;1.22;100.00
19510;BME280;9896;42.486;26.506;2023-01-30T15:02:57;99653.00;;;1.22;100.00
19510;BME280;9896;42.486;26.506;2023-01-30T15:05:33;99660.44;;;1.44;100.00
19510;BME280;9896;42.486;26.506;2023-01-30T15:08:06;99645.09;;;1.48;100.00
19510;BME280;9896;42.486;26.506;2023-01-30T15:10:59;99651.66;;;1.61;100.00
19510;BME280;9896;42.486;26.506;2023-01-30T15:27:55;99655.38;;;1.51;100.00
19510;BME280;9896;42.486;26.506;2023-01-30T15:30:59;99645.31;;;1.54;100.00
19510;BME280;9896;42.486;26.506;2023-01-30T15:33:26;99660.75;;;1.41;100.00
19510;BME280;9896;42.486;26.506;2023-01-30T15:35:52;99652.75;;;1.51;100.00
19510;BME280;9896;42.486;26.506;2023-01-30T15:38:32;99647.19;;;1.62;100.00
19510;BME280;9896;42.486;26.506;2023-01-30T15:41:03;99648.56;;;1.48;100.00
19510;BME280;9896;42.486;26.506;2023-01-30T15:47:00;99645.84;;;1.58;100.00
19510;BME280;9896;42.486;26.506;2023-01-30T15:51:46;99650.63;;;1.54;100.00
19510;BME280;9896;42.486;26.506;2023-01-30T15:54:17;99650.56;;;1.46;100.00
19510;BME280;9896;42.486;26.506;2023-01-30T15:56:47;99645.03;;;1.39;100.00
19510;BME280;9896;42.486;26.506;2023-01-30T15:59:33;99653.00;;;1.65;100.00
19510;BME280;9896;42.486;26.506;2023-01-30T16:02:13;99653.34;;;1.70;100.00
19510;BME280;9896;42.486;26.506;2023-01-30T16:04:40;99654.25;;;1.79;100.00
19510;BME280;9896;42.486;26.506;2023-01-30T16:07:25;99656.19;;;1.77;100.00
19510;BME280;9896;42.486;26.506;2023-01-30T16:09:57;99644.09;;;1.66;100.00
19510;BME280;9896;42.486;26.506;2023-01-30T16:12:28;99651.66;;;1.61;100.00
19510;BME280;9896;42.486;26.506;2023-01-30T16:14:54;99648.63;;;1.82;100.00
19510;BME280;9896;42.486;26.506;2023-01-30T16:17:28;99653.66;;;1.67;100.00
19510;BME280;9896;42.486;26.506;2023-01-30T16:19:58;99648.72;;;1.72;100.00
19510;BME280;9896;42.486;26.506;2023-01-30T16:22:28;99647.56;;;1.67;100.00
19510;BME280;9896;42.486;26.506;2023-01-30T16:24:56;99637.00;;;1.67;100.00
19510;BME280;9896;42.486;26.506;2023-01-30T16:27:29;99639.63;;;1.67;100.00
19510;BME280;9896;42.486;26.506;2023-01-30T16:29:58;99641.22;;;1.60;100.00
19510;BME280;9896;42.486;26.506;2023-01-30T16:32:27;99634.25;;;1.51;100.00
19510;BME280;9896;42.486;26.506;2023-01-30T16:37:48;99646.16;;;2.14;100.00
19510;BME280;9896;42.486;26.506;2023-01-30T16:40:17;99630.53;;;2.45;100.00
19510;BME280;9896;42.486;26.506;2023-01-30T16:43:03;99632.06;;;2.06;100.00
19510;BME280;9896;42.486;26.506;2023-01-30T16:48:45;99621.28;;;1.65;100.00
19510;BME280;9896;42.486;26.506;2023-01-30T16:51:15;99629.91;;;1.75;100.00
19510;BME280;9896;42.486;26.506;2023-01-30T16:53:49;99621.50;;;1.80;100.00
19510;BME280;9896;42.486;26.506;2023-01-30T16:56:17;99625.78;;;1.73;100.00
19510;BME280;9896;42.486;26.506;2023-01-30T16:58:48;99618.59;;;1.57;100.00
19510;BME280;9896;42.486;26.506;2023-01-30T17:01:15;99619.19;;;1.51;100.00
19510;BME280;9896;42.486;26.506;2023-01-30T17:03:42;99616.00;;;1.65;100.00
19510;BME280;9896;42.486;26.506;2023-01-30T17:06:37;99614.47;;;1.55;100.00
19510;BME280;9896;42.486;26.506;2023-01-30T17:09:28;99615.31;;;1.63;100.00
19510;BME280;9896;42.486;26.506;2023-01-30T17:11:51;99619.56;;;1.56;100.00
19510;BME280;9896;42.486;26.506;2023-01-30T17:14:24;99591.81;;;1.52;100.00
19510;BME280;9896;42.486;26.506;2023-01-30T17:17:07;99617.84;;;1.73;100.00
19510;BME280;9896;42.486;26.506;2023-01-30T17:19:36;99604.75;;;1.63;100.00
19510;BME280;9896;42.486;26.506;2023-01-30T17:22:04;99604.34;;;1.50;100.00
19510;BME280;9896;42.486;26.506;2023-01-30T17:24:31;99606.34;;;1.56;100.00
19510;BME280;9896;42.486;26.506;2023-01-30T17:26:59;99606.03;;;1.59;100.00
19510;BME280;9896;42.486;26.506;2023-01-30T17:29:28;99594.81;;;1.57;100.00
19510;BME280;9896;42.486;26.506;2023-01-30T17:31:55;99590.72;;;1.63;100.00
19510;BME280;9896;42.486;26.506;2023-01-30T17:34:23;99592.22;;;1.65;100.00
19510;BME280;9896;42.486;26.506;2023-01-30T17:36:50;99582.28;;;1.67;100.00
19510;BME280;9896;42.486;26.506;2023-01-30T17:39:19;99586.16;;;1.47;100.00
19510;BME280;9896;42.486;26.506;2023-01-30T17:41:45;99582.34;;;1.42;100.00
19510;BME280;9896;42.486;26.506;2023-01-30T17:44:12;99583.91;;;1.60;100.00
19510;BME280;9896;42.486;26.506;2023-01-30T17:49:21;99571.44;;;1.45;100.00
19510;BME280;9896;42.486;26.506;2023-01-30T17:51:48;99579.75;;;1.50;100.00
19510;BME280;9896;42.486;26.506;2023-01-30T17:54:14;99557.31;;;1.28;100.00
19510;BME280;9896;42.486;26.506;2023-01-30T17:56:47;99563.28;;;1.30;100.00
19510;BME280;9896;42.486;26.506;2023-01-30T17:59:17;99563.34;;;1.38;100.00
19510;BME280;9896;42.486;26.506;2023-01-30T18:01:45;99564.25;;;1.29;100.00
19510;BME280;9896;42.486;26.506;2023-01-30T18:04:12;99560.28;;;1.25;100.00
19510;BME280;9896;42.486;26.506;2023-01-30T18:06:39;99558.28;;;1.27;100.00
19510;BME280;9896;42.486;26.506;2023-01-30T18:09:05;99553.19;;;1.25;100.00
19510;BME280;9896;42.486;26.506;2023-01-30T18:11:32;99552.97;;;1.19;100.00
19510;BME280;9896;42.486;26.506;2023-01-30T18:13:58;99561.88;;;1.18;100.00
19510;BME280;9896;42.486;26.506;2023-01-30T18:16:27;99551.47;;;1.16;100.00
19510;BME280;9896;42.486;26.506;2023-01-30T18:18:59;99550.13;;;1.12;100.00
19510;BME280;9896;42.486;26.506;2023-01-30T18:21:28;99554.81;;;1.01;100.00
19510;BME280;9896;42.486;26.506;2023-01-30T18:23:54;99547.38;;;0.96;100.00
19510;BME280;9896;42.486;26.506;2023-01-30T18:26:20;99548.72;;;0.82;100.00
19510;BME280;9896;42.486;26.506;2023-01-30T18:28:46;99554.31;;;0.79;100.00
19510;BME280;9896;42.486;26.506;2023-01-30T18:31:12;99552.53;;;0.80;100.00
19510;BME280;9896;42.486;26.506;2023-01-30T18:33:38;99539.06;;;0.65;100.00
19510;BME280;9896;42.486;26.506;2023-01-30T18:36:08;99538.22;;;0.65;100.00
19510;BME280;9896;42.486;26.506;2023-01-30T18:38:34;99535.28;;;0.68;100.00
19510;BME280;9896;42.486;26.506;2023-01-30T18:41:17;99544.53;;;0.89;100.00
19510;BME280;9896;42.486;26.506;2023-01-30T18:43:44;99542.56;;;0.74;100.00
19510;BME280;9896;42.486;26.506;2023-01-30T18:46:12;99552.53;;;0.62;100.00
19510;BME280;9896;42.486;26.506;2023-01-30T18:48:39;99540.47;;;0.60;100.00
19510;BME280;9896;42.486;26.506;2023-01-30T18:51:16;99543.25;;;0.58;100.00
19510;BME280;9896;42.486;26.506;2023-01-30T18:53:44;99544.91;;;0.41;100.00
19510;BME280;9896;42.486;26.506;2023-01-30T18:56:15;99542.94;;;0.26;100.00
19510;BME280;9896;42.486;26.506;2023-01-30T18:58:41;99520.38;;;0.23;100.00
19510;BME280;9896;42.486;26.506;2023-01-30T19:01:15;99529.47;;;0.29;100.00
19510;BME280;9896;42.486;26.506;2023-01-30T19:03:41;99529.09;;;0.24;100.00
19510;BME280;9896;42.486;26.506;2023-01-30T19:06:09;99534.13;;;0.17;100.00
19510;BME280;9896;42.486;26.506;2023-01-30T19:08:35;99535.34;;;0.23;100.00
19510;BME280;9896;42.486;26.506;2023-01-30T19:11:05;99527.13;;;0.08;100.00
19510;BME280;9896;42.486;26.506;2023-01-30T19:13:54;99523.31;;;0.20;100.00
19510;BME280;9896;42.486;26.506;2023-01-30T19:16:23;99512.19;;;0.17;100.00
19510;BME280;9896;42.486;26.506;2023-01-30T19:18:49;99522.66;;;0.09;100.00
19510;BME280;9896;42.486;26.506;2023-01-30T19:21:16;99523.53;;;0.27;100.00
19510;BME280;9896;42.486;26.506;2023-01-30T19:23:42;99517.81;;;0.31;100.00
19510;BME280;9896;42.486;26.506;2023-01-30T19:26:08;99522.75;;;0.34;100.00
19510;BME280;9896;42.486;26.506;2023-01-30T19:28:33;99519.81;;;0.37;100.00
19510;BME280;9896;42.486;26.506;2023-01-30T19:31:07;99518.69;;;0.22;100.00
19510;BME280;9896;42.486;26.506;2023-01-30T19:33:33;99515.91;;;0.24;100.00
19510;BME280;9896;42.486;26.506;2023-01-30T19:36:16;99513.50;;;0.30;100.00
19510;BME280;9896;42.486;26.506;2023-01-30T19:38:44;99516.34;;;0.37;100.00
19510;BME280;9896;42.486;26.506;2023-01-30T19:41:15;99517.94;;;0.30;100.00
19510;BME280;9896;42.486;26.506;2023-01-30T19:43:41;99516.75;;;0.24;100.00
19510;BME280;9896;42.486;26.506;2023-01-30T19:46:08;99517.56;;;0.07;100.00
19510;BME280;9896;42.486;26.506;2023-01-30T19:48:37;99511.69;;;0.13;100.00
19510;BME280;9896;42.486;26.506;2023-01-30T19:53:42;99510.25;;;0.01;100.00
19510;BME280;9896;42.486;26.506;2023-01-30T19:56:10;99501.88;;;0.06;100.00
19510;BME280;9896;42.486;26.506;2023-01-30T19:58:36;99498.41;;;0.05;100.00
19510;BME280;9896;42.486;26.506;2023-01-30T20:01:07;99504.06;;;0.10;100.00
19510;BME280;9896;42.486;26.506;2023-01-30T20:03:34;99489.69;;;0.05;100.00
19510;BME280;9896;42.486;26.506;2023-01-30T20:06:08;99492.47;;;0.21;100.00
19510;BME280;9896;42.486;26.506;2023-01-30T20:08:34;99491.66;;;0.20;100.00
19510;BME280;9896;42.486;26.506;2023-01-30T20:11:01;99489.69;;;0.22;100.00
19510;BME280;9896;42.486;26.506;2023-01-30T20:13:27;99488.72;;;0.23;100.00
19510;BME280;9896;42.486;26.506;2023-01-30T20:15:53;99478.56;;;0.11;100.00
19510;BME280;9896;42.486;26.506;2023-01-30T20:18:21;99464.22;;;0.13;100.00
19510;BME280;9896;42.486;26.506;2023-01-30T20:20:46;99483.53;;;0.31;100.00
19510;BME280;9896;42.486;26.506;2023-01-30T20:23:12;99493.56;;;0.28;100.00
19510;BME280;9896;42.486;26.506;2023-01-30T20:25:37;99486.31;;;0.30;100.00
19510;BME280;9896;42.486;26.506;2023-01-30T20:28:03;99484.78;;;0.10;100.00
19510;BME280;9896;42.486;26.506;2023-01-30T20:30:29;99479.59;;;0.18;100.00
19510;BME280;9896;42.486;26.506;2023-01-30T20:32:54;99455.06;;;-0.01;100.00
19510;BME280;9896;42.486;26.506;2023-01-30T20:35:20;99475.22;;;0.09;100.00
19510;BME280;9896;42.486;26.506;2023-01-30T20:37:45;99464.09;;;0.15;100.00
19510;BME280;9896;42.486;26.506;2023-01-30T20:40:11;99466.28;;;0.19;100.00
19510;BME280;9896;42.486;26.506;2023-01-30T20:42:37;99470.09;;;0.25;100.00
19510;BME280;9896;42.486;26.506;2023-01-30T20:45:03;99472.75;;;0.07;100.00
19510;BME280;9896;42.486;26.506;2023-01-30T20:47:28;99475.44;;;-0.03;100.00
19510;BME280;9896;42.486;26.506;2023-01-30T20:49:54;99471.41;;;0.03;100.00
19510;BME280;9896;42.486;26.506;2023-01-30T20:52:19;99472.28;;;-0.06;100.00
19510;BME280;9896;42.486;26.506;2023-01-30T20:54:45;99472.16;;;-0.05;100.00
19510;BME280;9896;42.486;26.506;2023-01-30T20:57:10;99457.97;;;-0.04;100.00
19510;BME280;9896;42.486;26.506;2023-01-30T20:59:36;99475.22;;;-0.09;100.00
19510;BME280;9896;42.486;26.506;2023-01-30T21:02:01;99472.06;;;-0.13;100.00
19510;BME280;9896;42.486;26.506;2023-01-30T21:04:27;99468.97;;;-0.26;100.00
19510;BME280;9896;42.486;26.506;2023-01-30T21:06:52;99455.16;;;-0.37;100.00
19510;BME280;9896;42.486;26.506;2023-01-30T21:09:20;99465.00;;;-0.39;100.00
19510;BME280;9896;42.486;26.506;2023-01-30T21:11:47;99473.06;;;-0.41;100.00
19510;BME280;9896;42.486;26.506;2023-01-30T21:14:14;99463.25;;;-0.49;100.00
19510;BME280;9896;42.486;26.506;2023-01-30T21:16:40;99453.81;;;-0.41;100.00
19510;BME280;9896;42.486;26.506;2023-01-30T21:19:08;99461.72;;;-0.41;100.00
19510;BME280;9896;42.486;26.506;2023-01-30T21:21:37;99456.19;;;-0.48;100.00
19510;BME280;9896;42.486;26.506;2023-01-30T21:24:06;99465.22;;;-0.51;100.00
19510;BME280;9896;42.486;26.506;2023-01-30T21:26:35;99452.06;;;-0.51;100.00
19510;BME280;9896;42.486;26.506;2023-01-30T21:29:02;99427.88;;;-0.64;100.00
19510;BME280;9896;42.486;26.506;2023-01-30T21:31:29;99443.00;;;-0.66;100.00
19510;BME280;9896;42.486;26.506;2023-01-30T21:33:57;99453.97;;;-0.70;100.00
19510;BME280;9896;42.486;26.506;2023-01-30T21:36:22;99448.97;;;-0.73;100.00
19510;BME280;9896;42.486;26.506;2023-01-30T21:38:48;99449.69;;;-0.81;100.00
19510;BME280;9896;42.486;26.506;2023-01-30T21:41:38;99441.66;;;-0.79;100.00
19510;BME280;9896;42.486;26.506;2023-01-30T21:44:26;99448.16;;;-0.74;100.00
19510;BME280;9896;42.486;26.506;2023-01-30T21:46:52;99431.47;;;-0.92;100.00
19510;BME280;9896;42.486;26.506;2023-01-30T21:49:18;99440.97;;;-0.81;100.00
19510;BME280;9896;42.486;26.506;2023-01-30T21:51:45;99435.47;;;-0.88;100.00
19510;BME280;9896;42.486;26.506;2023-01-30T21:54:12;99432.84;;;-0.88;100.00
19510;BME280;9896;42.486;26.506;2023-01-30T21:56:38;99430.78;;;-0.94;100.00
19510;BME280;9896;42.486;26.506;2023-01-30T21:59:04;99428.94;;;-0.84;100.00
19510;BME280;9896;42.486;26.506;2023-01-30T22:01:31;99426.19;;;-0.92;100.00
19510;BME280;9896;42.486;26.506;2023-01-30T22:04:02;99425.13;;;-0.99;100.00
19510;BME280;9896;42.486;26.506;2023-01-30T22:06:28;99423.06;;;-1.05;100.00
19510;BME280;9896;42.486;26.506;2023-01-30T22:08:54;99431.69;;;-1.13;100.00
19510;BME280;9896;42.486;26.506;2023-01-30T22:11:20;99416.50;;;-1.19;100.00
19510;BME280;9896;42.486;26.506;2023-01-30T22:13:47;99427.94;;;-1.10;100.00
19510;BME280;9896;42.486;26.506;2023-01-30T22:16:15;99425.03;;;-1.17;100.00
19510;BME280;9896;42.486;26.506;2023-01-30T22:18:42;99420.38;;;-1.23;100.00
19510;BME280;9896;42.486;26.506;2023-01-30T22:21:16;99437.78;;;-1.22;100.00
19510;BME280;9896;42.486;26.506;2023-01-30T22:23:44;99432.09;;;-1.17;100.00
19510;BME280;9896;42.486;26.506;2023-01-30T22:26:11;99433.38;;;-1.21;100.00
19510;BME280;9896;42.486;26.506;2023-01-30T22:28:37;99430.59;;;-1.20;100.00
19510;BME280;9896;42.486;26.506;2023-01-30T22:31:06;99425.63;;;-1.23;100.00
19510;BME280;9896;42.486;26.506;2023-01-30T22:33:32;99412.63;;;-1.24;100.00
19510;BME280;9896;42.486;26.506;2023-01-30T22:35:59;99406.34;;;-1.14;100.00
19510;BME280;9896;42.486;26.506;2023-01-30T22:38:24;99406.00;;;-1.28;100.00
19510;BME280;9896;42.486;26.506;2023-01-30T22:41:01;99401.03;;;-1.31;100.00
19510;BME280;9896;42.486;26.506;2023-01-30T22:43:28;99402.94;;;-1.33;100.00
19510;BME280;9896;42.486;26.506;2023-01-30T22:46:06;99390.63;;;-1.33;100.00
19510;BME280;9896;42.486;26.506;2023-01-30T22:48:33;99397.69;;;-1.33;100.00
19510;BME280;9896;42.486;26.506;2023-01-30T22:51:07;99399.47;;;-1.24;100.00
19510;BME280;9896;42.486;26.506;2023-01-30T22:53:36;99397.25;;;-1.29;100.00
19510;BME280;9896;42.486;26.506;2023-01-30T22:56:16;99387.03;;;-1.32;100.00
19510;BME280;9896;42.486;26.506;2023-01-30T22:58:43;99385.97;;;-1.39;100.00
19510;BME280;9896;42.486;26.506;2023-01-30T23:01:26;99382.66;;;-1.51;100.00
19510;BME280;9896;42.486;26.506;2023-01-30T23:03:54;99392.09;;;-1.58;100.00
19510;BME280;9896;42.486;26.506;2023-01-30T23:06:21;99398.47;;;-1.60;100.00
19510;BME280;9896;42.486;26.506;2023-01-30T23:08:48;99405.34;;;-1.40;100.00
19510;BME280;9896;42.486;26.506;2023-01-30T23:13:52;99387.41;;;-1.73;100.00
19510;BME280;9896;42.486;26.506;2023-01-30T23:16:20;99409.38;;;-1.55;100.00
19510;BME280;9896;42.486;26.506;2023-01-30T23:18:47;99403.59;;;-1.68;100.00
19510;BME280;9896;42.486;26.506;2023-01-30T23:21:32;99407.44;;;-1.53;100.00
19510;BME280;9896;42.486;26.506;2023-01-30T23:24:03;99407.84;;;-1.48;100.00
19510;BME280;9896;42.486;26.506;2023-01-30T23:26:31;99399.78;;;-1.47;100.00
19510;BME280;9896;42.486;26.506;2023-01-30T23:28:59;99397.03;;;-1.45;100.00
19510;BME280;9896;42.486;26.506;2023-01-30T23:31:26;99391.00;;;-1.55;100.00
19510;BME280;9896;42.486;26.506;2023-01-30T23:33:59;99391.97;;;-1.56;100.00
19510;BME280;9896;42.486;26.506;2023-01-30T23:36:26;99380.31;;;-1.44;100.00
19510;BME280;9896;42.486;26.506;2023-01-30T23:38:53;99400.03;;;-1.30;100.00
19510;BME280;9896;42.486;26.506;2023-01-30T23:41:33;99389.91;;;-1.25;100.00
19510;BME280;9896;42.486;26.506;2023-01-30T23:44:00;99382.75;;;-1.43;100.00
19510;BME280;9896;42.486;26.506;2023-01-30T23:46:40;99390.38;;;-1.39;100.00
19510;BME280;9896;42.486;26.506;2023-01-30T23:49:10;99387.66;;;-1.48;100.00
19510;BME280;9896;42.486;26.506;2023-01-30T23:51:39;99387.47;;;-1.46;100.00
19510;BME280;9896;42.486;26.506;2023-01-30T23:54:05;99389.25;;;-1.37;100.00
19510;BME280;9896;42.486;26.506;2023-01-30T23:56:32;99396.91;;;-1.53;100.00
19510;BME280;9896;42.486;26.506;2023-01-30T23:59:00;99389.75;;;-1.70;100.00
